Startpagina
METAR-TAF:

METAR-TAF

Vliegvelden :

Dubai, Verenigde Arabische Emiraten

Dubai International Airport

breedte: 25-15-10N, lengte: 055-21-52E, hoogte: 8 m

Actueel weer

Dit bericht is 1 uur en het 6 minuten geleden gemaakt, om 20:00 UTC
Wind 11 kt uit het westen
Temperatuur 21°C
Vochtigheid 56%
Druk 1015 hPa
Zicht 10 km of meer
Verspreide wolken op 3500 ft

METAR: OMDB 162000Z 27011KT 9999 SCT035 21/12 Q1015 NOSIG

Tijdstip: 01:06 (21:06 UTC)

Verwachting

Dit bericht is 4 uur en het 5 minuten geleden gemaakt, om 17:01 UTC
Verwachting geldig van 16 om 18 UTC tot 18 om 00 UTC
Wind 10 kt uit het westen
Zicht 10 km of meer
geen wolken onder 1500 m en geen cumulonimbus
Wijzigt naar
van 16 om 21 UTC tot 16 om 23 UTC
Wind 7 kt uit het zuidzuidwesten
Wijzigt naar
van 17 om 07 UTC tot 17 om 09 UTC
Wind 10 kt uit het westen
Wijzigt naar
van 17 om 16 UTC tot 17 om 18 UTC
Wind 5 kt uit het zuidzuidwesten

TAF: OMDB 161701Z 1618/1800 28010KT CAVOK BECMG 1621/1623 21007KT BECMG 1707/1709 27010KT BECMG 1716/1718 20005KT

Waarnemingen en weersverwachtingen van meer dan 4000 vliegvelden (METAR en TAF).

De beschikbare stations zijn de gele en rode punten op de kaart.

Ga met uw muis naar het station om de naam te zien.

Klik dan om waarnemingen en weersverwachtingen te zien.

kaart wijzigen: klik op de groene knoppen met een zwart kruis om in te zoomen, op de groene knop met een streepje om uit te zoomen of op de groene pijlen voor aangrenzende kaarten.


METAR-TAF: